createdAt,value
2022-09-28T06:04:00.153Z,68.16
2022-09-28T06:05:00.178Z,68.13
2022-09-28T06:06:00.179Z,69.92
2022-09-28T06:07:00.130Z,66.88
2022-09-28T06:08:00.290Z,68.80
2022-09-28T06:09:00.123Z,65.07
2022-09-28T06:10:00.168Z,64.06
2022-09-28T06:11:00.196Z,66.50
2022-09-28T06:12:00.138Z,64.46
2022-09-28T06:13:00.251Z,64.20
2022-09-28T06:14:00.062Z,63.17
2022-09-28T06:15:00.172Z,62.89
2022-09-28T06:16:00.109Z,67.97
2022-09-28T06:17:00.211Z,62.62
2022-09-28T06:18:00.055Z,64.81
2022-09-28T06:19:00.106Z,66.53
2022-09-28T06:19:59.982Z,64.14
2022-09-28T06:20:59.995Z,66.22
2022-09-28T06:21:59.950Z,63.84
2022-09-28T06:23:00.044Z,64.86
2022-09-28T06:24:00.018Z,63.64
2022-09-28T06:24:59.951Z,64.85
2022-09-28T06:26:00.001Z,63.87
2022-09-28T06:26:59.949Z,63.66
2022-09-28T06:27:59.922Z,62.56
2022-09-28T06:28:59.945Z,63.35
2022-09-28T06:29:59.897Z,61.57
2022-09-28T06:31:00.041Z,64.09
2022-09-28T06:31:59.874Z,62.73
2022-09-28T06:32:59.875Z,64.42
2022-09-28T06:34:00.158Z,61.58
2022-09-28T06:34:59.925Z,60.76
2022-09-28T06:35:59.832Z,64.85
2022-09-28T06:36:59.804Z,63.35
2022-09-28T06:37:59.808Z,62.04
2022-09-28T06:38:59.843Z,63.15
2022-09-28T06:39:59.843Z,64.44
2022-09-28T06:40:59.956Z,65.90
2022-09-28T06:41:59.837Z,64.19
2022-09-28T06:42:59.770Z,63.87
2022-09-28T06:43:59.886Z,63.67
2022-09-28T06:44:59.814Z,63.31
2022-09-28T06:45:59.823Z,62.57
2022-09-28T06:46:59.794Z,64.86
2022-09-28T06:48:00.039Z,63.56
2022-09-28T06:48:59.842Z,61.65
2022-09-28T06:49:59.763Z,61.41
2022-09-28T06:50:59.699Z,61.80
2022-09-28T06:51:59.782Z,62.31
2022-09-28T06:52:59.669Z,62.50
2022-09-28T06:53:59.818Z,61.24
2022-09-28T06:54:59.636Z,61.67
2022-09-28T06:55:59.705Z,62.62
2022-09-28T06:56:59.685Z,60.97
2022-09-28T06:57:59.590Z,61.93
2022-09-28T06:58:59.682Z,61.58
2022-09-28T06:59:59.699Z,61.71
2022-09-28T07:00:59.702Z,61.47
2022-09-28T07:01:59.615Z,58.90
2022-09-28T07:02:59.701Z,61.73
2022-09-28T07:03:59.602Z,61.32
2022-09-28T07:04:59.777Z,60.16
2022-09-28T07:05:59.517Z,63.04
2022-09-28T07:06:59.619Z,60.09
2022-09-28T07:07:59.522Z,61.09
2022-09-28T07:09:21.081Z,60.44
2022-09-28T07:10:01.678Z,58.73
2022-09-28T07:10:59.563Z,61.03
2022-09-28T07:11:59.563Z,63.20
2022-09-28T07:12:59.549Z,61.63
2022-09-28T07:13:59.526Z,60.41
2022-09-28T07:14:59.440Z,59.47
2022-09-28T07:15:59.434Z,61.66
2022-09-28T07:17:30.478Z,60.85
2022-09-28T07:18:02.733Z,57.57
2022-09-28T07:19:00.559Z,59.29
2022-09-28T07:20:05.291Z,59.79
2022-09-28T07:21:00.393Z,59.99
2022-09-28T07:22:04.718Z,62.24
2022-09-28T07:23:12.289Z,61.23
2022-09-28T07:24:01.561Z,60.66
2022-09-28T07:24:59.401Z,58.41
2022-09-28T07:25:59.319Z,59.63
2022-09-28T07:26:59.295Z,64.08
2022-09-28T07:27:59.357Z,61.22
2022-09-28T07:28:59.467Z,61.40
2022-09-28T07:29:59.274Z,58.39
2022-09-28T07:30:59.409Z,58.80
2022-09-28T07:31:59.365Z,59.14
2022-09-28T07:32:59.214Z,61.83
2022-09-28T07:34:00.799Z,62.23
2022-09-28T07:34:59.353Z,59.21
2022-09-28T07:35:59.216Z,59.66
2022-09-28T07:36:59.258Z,57.24
2022-09-28T07:37:59.309Z,58.24
2022-09-28T07:38:59.315Z,58.96
2022-09-28T07:39:59.190Z,59.44
2022-09-28T07:40:59.330Z,59.95
2022-09-28T07:42:02.576Z,60.90
2022-09-28T07:43:00.137Z,59.81
2022-09-28T07:43:59.310Z,60.04
2022-09-28T07:44:59.146Z,59.99
2022-09-28T07:45:59.286Z,61.63
2022-09-28T07:46:59.171Z,61.20
2022-09-28T07:47:59.254Z,62.76
2022-09-28T07:48:59.477Z,57.18
2022-09-28T07:49:59.070Z,57.19
2022-09-28T07:50:59.053Z,58.47
2022-09-28T07:51:59.101Z,63.07
2022-09-28T07:52:59.130Z,59.45
2022-09-28T07:53:59.154Z,58.60
2022-09-28T07:55:02.185Z,57.44
2022-09-28T07:56:00.117Z,59.91
2022-09-28T07:56:59.097Z,58.76
2022-09-28T07:57:59.082Z,58.51
2022-09-28T07:58:59.036Z,61.62
2022-09-28T07:59:59.045Z,57.77
2022-09-28T08:00:59.117Z,60.17
2022-09-28T08:01:59.012Z,59.38
2022-09-28T08:02:58.976Z,61.55
2022-09-28T08:03:58.922Z,58.04
2022-09-28T08:04:59.006Z,60.44
2022-09-28T08:05:58.890Z,60.29
2022-09-28T08:06:58.876Z,64.96
2022-09-28T08:07:58.831Z,66.78
2022-09-28T08:08:58.886Z,66.38
2022-09-28T08:09:58.839Z,65.16
2022-09-28T08:10:58.833Z,64.99
2022-09-28T08:11:58.930Z,65.94
2022-09-28T08:13:01.977Z,65.61
2022-09-28T08:13:58.857Z,65.42
2022-09-28T08:14:58.815Z,65.48
2022-09-28T08:15:58.790Z,66.67
2022-09-28T08:16:58.784Z,65.83
2022-09-28T08:18:02.018Z,66.92
2022-09-28T08:18:58.835Z,65.76
2022-09-28T08:19:58.763Z,65.38
2022-09-28T08:20:58.772Z,65.92
2022-09-28T08:21:58.824Z,67.84
2022-09-28T08:22:58.753Z,66.05
2022-09-28T08:23:58.736Z,66.02
2022-09-28T08:24:58.828Z,66.68
2022-09-28T08:25:58.747Z,66.68
2022-09-28T08:26:58.730Z,67.51
2022-09-28T08:27:58.767Z,67.55
2022-09-28T08:28:58.783Z,66.04
2022-09-28T08:29:58.669Z,66.03
2022-09-28T08:30:58.650Z,67.21
2022-09-28T08:32:01.494Z,68.02
2022-09-28T08:32:59.586Z,67.45
2022-09-28T08:33:58.631Z,67.42
2022-09-28T08:34:58.669Z,66.60
2022-09-28T08:35:58.539Z,70.52
2022-09-28T08:36:58.590Z,67.36
2022-09-28T08:37:58.643Z,67.69
2022-09-28T08:38:58.662Z,66.77
2022-09-28T08:39:58.531Z,68.01
2022-09-28T08:40:58.563Z,67.08
2022-09-28T08:41:58.586Z,66.99
2022-09-28T08:42:58.541Z,65.57
2022-09-28T08:43:58.484Z,65.32
2022-09-28T08:44:58.514Z,66.17
2022-09-28T08:45:58.500Z,65.68
2022-09-28T08:46:58.408Z,65.71
2022-09-28T08:47:58.456Z,67.59
2022-09-28T08:49:13.772Z,67.18
2022-09-28T08:50:00.577Z,67.03
2022-09-28T08:50:58.357Z,66.06
2022-09-28T08:51:58.492Z,66.45
2022-09-28T08:52:58.398Z,65.46
2022-09-28T08:53:58.363Z,63.03
2022-09-28T08:54:58.352Z,64.61
2022-09-28T08:55:58.304Z,65.11
2022-09-28T08:56:58.289Z,64.75
2022-09-28T08:57:58.405Z,62.02
2022-09-28T08:58:58.305Z,62.12
2022-09-28T08:59:58.285Z,61.04
2022-09-28T09:00:58.307Z,63.44
2022-09-28T09:01:58.237Z,61.71
2022-09-28T09:02:58.314Z,63.60
2022-09-28T09:03:58.280Z,61.62
2022-09-28T09:04:58.230Z,62.38
2022-09-28T09:05:58.287Z,63.28
2022-09-28T09:06:58.189Z,60.80
2022-09-28T09:07:58.213Z,63.88
2022-09-28T09:08:58.220Z,61.43
2022-09-28T09:09:58.278Z,60.53
2022-09-28T09:10:58.256Z,63.17
2022-09-28T09:11:58.140Z,61.23
2022-09-28T09:12:58.127Z,60.86
2022-09-28T09:13:58.501Z,60.66
2022-09-28T09:14:58.164Z,59.25
2022-09-28T09:15:58.144Z,58.87
2022-09-28T09:17:00.461Z,64.76
2022-09-28T09:17:59.097Z,61.72
2022-09-28T09:18:58.073Z,60.43
2022-09-28T09:19:58.052Z,61.69
2022-09-28T09:20:58.031Z,62.75
2022-09-28T09:21:58.033Z,64.51
2022-09-28T09:22:58.131Z,61.58
2022-09-28T09:23:58.115Z,64.46
2022-09-28T09:24:57.962Z,62.33
2022-09-28T09:25:58.053Z,65.34
2022-09-28T09:26:57.959Z,60.52
2022-09-28T09:27:58.071Z,60.82
2022-09-28T09:28:58.065Z,62.64
2022-09-28T09:29:57.921Z,64.82
2022-09-28T09:30:58.027Z,58.69
2022-09-28T09:31:57.999Z,61.61
2022-09-28T09:32:57.919Z,61.88
2022-09-28T09:33:58.007Z,62.83
2022-09-28T09:34:57.889Z,62.99
2022-09-28T09:35:57.930Z,65.44
2022-09-28T09:36:57.835Z,66.20
2022-09-28T09:37:58.727Z,67.83
2022-09-28T09:38:58.878Z,69.62
2022-09-28T09:39:57.904Z,67.60
2022-09-28T09:40:57.929Z,66.47
2022-09-28T09:41:57.925Z,64.63
2022-09-28T09:42:57.915Z,66.38
2022-09-28T09:43:58.172Z,65.61
2022-09-28T09:44:57.763Z,67.88
2022-09-28T09:45:57.862Z,67.18
2022-09-28T09:46:57.879Z,68.26
2022-09-28T09:47:57.800Z,66.36
2022-09-28T09:48:57.775Z,66.31
2022-09-28T09:49:57.710Z,68.02
2022-09-28T09:50:57.840Z,67.75
2022-09-28T09:51:57.711Z,67.77
2022-09-28T09:52:57.698Z,63.62
2022-09-28T09:53:57.730Z,66.13
2022-09-28T09:54:57.688Z,65.75
2022-09-28T09:55:57.640Z,66.29
2022-09-28T09:56:57.664Z,67.35
2022-09-28T09:57:57.757Z,66.81
2022-09-28T09:58:57.732Z,63.64
2022-09-28T09:59:57.681Z,63.50
2022-09-28T10:00:57.722Z,62.44
2022-09-28T10:01:57.731Z,62.34
2022-09-28T10:02:57.625Z,60.98
2022-09-28T10:03:58.083Z,62.90
2022-09-28T10:04:57.648Z,63.19
2022-09-28T10:05:57.602Z,65.45
2022-09-28T10:06:57.554Z,62.58
2022-09-28T10:07:57.615Z,62.54
2022-09-28T10:08:57.559Z,61.45
2022-09-28T10:09:57.557Z,62.26
2022-09-28T10:10:57.494Z,60.24
2022-09-28T10:11:57.479Z,62.00
2022-09-28T10:12:57.463Z,60.99
2022-09-28T10:13:57.510Z,61.41
2022-09-28T10:14:57.466Z,60.09
2022-09-28T10:15:57.427Z,62.17
2022-09-28T10:16:57.690Z,61.50
2022-09-28T10:17:57.487Z,62.49
2022-09-28T10:18:57.795Z,61.12
2022-09-28T10:19:57.393Z,61.93
2022-09-28T10:20:57.460Z,65.40
2022-09-28T10:21:57.479Z,63.70
2022-09-28T10:22:57.425Z,64.50
2022-09-28T10:23:57.382Z,62.94
2022-09-28T10:24:57.437Z,63.93
2022-09-28T10:25:57.334Z,66.08
2022-09-28T10:26:57.320Z,64.28
2022-09-28T10:27:57.327Z,64.12
2022-09-28T10:28:57.342Z,61.11
2022-09-28T10:29:57.375Z,66.14
2022-09-28T10:30:57.497Z,65.12
2022-09-28T10:31:57.249Z,63.37
2022-09-28T10:32:57.369Z,63.58
2022-09-28T10:33:57.374Z,64.50
2022-09-28T10:34:57.247Z,66.69
2022-09-28T10:35:57.251Z,62.91
2022-09-28T10:36:57.210Z,64.12
2022-09-28T10:37:57.196Z,62.80
2022-09-28T10:38:57.210Z,63.40
2022-09-28T10:39:57.151Z,62.65
2022-09-28T10:40:57.197Z,63.35
2022-09-28T10:41:57.171Z,62.12
2022-09-28T10:42:57.136Z,63.18
2022-09-28T10:43:58.156Z,63.23
2022-09-28T10:44:58.166Z,63.58
2022-09-28T10:45:57.185Z,66.94
2022-09-28T10:46:57.157Z,63.40
2022-09-28T10:47:57.059Z,63.89
2022-09-28T10:48:57.212Z,64.36
2022-09-28T10:49:57.042Z,64.30
2022-09-28T10:50:57.093Z,62.72
2022-09-28T10:51:57.055Z,66.00
2022-09-28T10:52:57.020Z,64.75
2022-09-28T10:53:57.029Z,65.65
2022-09-28T10:54:57.153Z,64.55
2022-09-28T10:55:57.039Z,59.88
2022-09-28T10:56:57.086Z,61.73
2022-09-28T10:57:56.958Z,64.50
2022-09-28T10:58:56.951Z,63.93
2022-09-28T10:59:57.099Z,63.04
2022-09-28T11:00:56.940Z,62.72
2022-09-28T11:01:57.141Z,61.07
2022-09-28T11:02:56.965Z,64.40
2022-09-28T11:03:56.955Z,65.75
2022-09-28T11:04:57.046Z,65.86
2022-09-28T11:05:57.012Z,62.18
2022-09-28T11:06:56.972Z,59.16
2022-09-28T11:07:56.865Z,62.91
2022-09-28T11:08:56.842Z,63.68
2022-09-28T11:09:56.881Z,63.05
2022-09-28T11:10:56.888Z,62.14
2022-09-28T11:11:56.903Z,64.12
2022-09-28T11:12:56.792Z,62.79
2022-09-28T11:13:56.781Z,64.61
2022-09-28T11:14:56.977Z,63.09
2022-09-28T11:15:56.751Z,60.84
2022-09-28T11:16:56.825Z,64.06
2022-09-28T11:17:56.773Z,65.20
2022-09-28T11:18:56.841Z,65.02
2022-09-28T11:19:56.941Z,63.42
2022-09-28T11:20:56.966Z,66.48
2022-09-28T11:21:56.663Z,63.35
2022-09-28T11:22:57.748Z,63.06
2022-09-28T11:23:56.720Z,66.40
2022-09-28T11:24:56.702Z,64.85
2022-09-28T11:25:56.842Z,66.11
2022-09-28T11:26:56.734Z,65.39
2022-09-28T11:27:56.708Z,67.30
2022-09-28T11:28:56.733Z,69.16
2022-09-28T11:29:56.734Z,66.63
2022-09-28T11:30:56.597Z,71.05
2022-09-28T11:31:56.706Z,78.81
2022-09-28T11:32:56.678Z,71.12
2022-09-28T11:33:56.659Z,71.39
2022-09-28T11:34:59.434Z,71.23
2022-09-28T11:35:57.636Z,70.93
2022-09-28T11:37:01.425Z,69.43
2022-09-28T11:37:58.519Z,66.33
2022-09-28T11:38:56.573Z,67.27
2022-09-28T11:39:56.573Z,67.98
2022-09-28T11:40:56.553Z,69.16
2022-09-28T11:41:56.564Z,65.94
2022-09-28T11:42:56.518Z,65.40
2022-09-28T11:43:56.442Z,65.61
2022-09-28T11:44:56.585Z,62.55
2022-09-28T11:45:56.504Z,65.73
2022-09-28T11:46:56.442Z,67.10
2022-09-28T11:47:56.398Z,67.34
2022-09-28T11:48:56.468Z,66.19
2022-09-28T11:49:56.749Z,65.07
2022-09-28T11:50:56.607Z,66.00
2022-09-28T11:51:56.444Z,65.62
2022-09-28T11:52:56.432Z,65.42
2022-09-28T11:53:56.430Z,66.02
2022-09-28T11:54:56.480Z,61.87
2022-09-28T11:55:56.350Z,64.79
2022-09-28T11:56:56.269Z,65.48
2022-09-28T11:57:56.374Z,63.35
2022-09-28T11:58:56.360Z,63.54
2022-09-28T11:59:56.662Z,64.22
2022-09-28T12:00:56.380Z,62.73
2022-09-28T12:01:57.360Z,64.38
2022-09-28T12:02:56.351Z,63.38
2022-09-28T12:03:56.278Z,65.69
2022-09-28T12:04:56.617Z,66.25
2022-09-28T12:05:56.274Z,69.88
2022-09-28T12:06:56.198Z,67.14
2022-09-28T12:07:56.242Z,64.96
2022-09-28T12:08:56.269Z,65.97
2022-09-28T12:09:56.200Z,68.64
2022-09-28T12:10:56.153Z,68.84
2022-09-28T12:11:56.238Z,65.59
2022-09-28T12:12:56.145Z,66.05
2022-09-28T12:13:56.174Z,64.36
2022-09-28T12:14:56.140Z,65.94
2022-09-28T12:17:06.963Z,65.26
2022-09-28T12:17:58.267Z,63.36
2022-09-28T12:18:56.107Z,65.69
2022-09-28T12:19:56.132Z,65.29
2022-09-28T12:20:56.097Z,64.71
2022-09-28T12:21:56.132Z,64.35
2022-09-28T12:22:56.132Z,65.96
2022-09-28T12:23:56.004Z,64.03
2022-09-28T12:24:56.165Z,64.43
2022-09-28T12:25:56.008Z,63.23
2022-09-28T12:26:55.996Z,62.96
2022-09-28T12:27:55.939Z,62.60
2022-09-28T12:28:55.948Z,62.60
2022-09-28T12:29:56.302Z,63.94
2022-09-28T12:30:55.973Z,64.71
2022-09-28T12:31:56.020Z,64.86
2022-09-28T12:32:55.894Z,63.50
2022-09-28T12:33:56.020Z,65.84
2022-09-28T12:34:55.953Z,62.57
2022-09-28T12:35:55.971Z,63.33
2022-09-28T12:36:56.137Z,63.43
2022-09-28T12:37:55.965Z,62.66
2022-09-28T12:39:17.479Z,64.00
2022-09-28T12:39:58.639Z,61.17
2022-09-28T12:40:56.946Z,63.34
2022-09-28T12:41:56.362Z,61.86
2022-09-28T12:42:55.814Z,62.49
2022-09-28T12:43:55.873Z,62.76
2022-09-28T12:44:59.283Z,63.23
2022-09-28T12:46:11.606Z,62.21
2022-09-28T12:46:58.199Z,65.16
2022-09-28T12:47:55.862Z,63.24
2022-09-28T12:49:36.710Z,67.72
2022-09-28T12:50:58.365Z,66.44
2022-09-28T12:51:56.724Z,66.30
2022-09-28T12:52:58.128Z,65.61
2022-09-28T12:53:56.880Z,65.97
2022-09-28T12:54:55.709Z,64.94
2022-09-28T12:55:55.774Z,67.09
2022-09-28T12:56:55.738Z,66.49
2022-09-28T12:57:55.645Z,65.30
2022-09-28T12:58:55.685Z,65.80
2022-09-28T12:59:55.751Z,69.87
2022-09-28T13:00:55.747Z,68.42
2022-09-28T13:01:56.686Z,67.66
2022-09-28T13:02:55.716Z,66.09
2022-09-28T13:03:55.569Z,66.15
2022-09-28T13:04:55.717Z,64.40
2022-09-28T13:05:55.649Z,64.65
2022-09-28T13:06:55.643Z,65.52
2022-09-28T13:07:55.576Z,66.32
2022-09-28T13:08:56.530Z,65.86
2022-09-28T13:09:55.561Z,63.52
2022-09-28T13:10:55.600Z,65.19
2022-09-28T13:11:55.527Z,64.28
2022-09-28T13:12:55.518Z,61.83
2022-09-28T13:13:55.528Z,63.62
2022-09-28T13:14:55.612Z,66.03
2022-09-28T13:15:55.598Z,64.58
2022-09-28T13:17:00.417Z,64.91
2022-09-28T13:17:57.351Z,67.33
2022-09-28T13:18:55.454Z,66.07
2022-09-28T13:19:55.412Z,65.40
2022-09-28T13:20:55.446Z,64.63
2022-09-28T13:21:56.373Z,65.43
2022-09-28T13:22:55.468Z,65.54
2022-09-28T13:24:04.474Z,64.53
2022-09-28T13:24:57.492Z,64.59
2022-09-28T13:25:55.392Z,65.32
2022-09-28T13:26:55.377Z,68.02
2022-09-28T13:27:55.309Z,66.13
2022-09-28T13:28:55.390Z,66.77
2022-09-28T13:29:56.676Z,64.84
2022-09-28T13:30:55.616Z,65.97
2022-09-28T13:31:55.308Z,64.72
2022-09-28T13:32:55.335Z,64.78
2022-09-28T13:33:55.337Z,66.06
2022-09-28T13:34:55.281Z,64.55
2022-09-28T13:35:56.037Z,65.51
2022-09-28T13:36:55.256Z,64.33
2022-09-28T13:37:55.198Z,65.01
2022-09-28T13:38:55.228Z,65.81
2022-09-28T13:39:55.225Z,65.79
2022-09-28T13:40:55.293Z,63.56
2022-09-28T13:41:55.240Z,66.96
2022-09-28T13:42:55.224Z,65.72
2022-09-28T13:43:55.128Z,66.34
2022-09-28T13:44:55.247Z,63.93
2022-09-28T13:45:55.238Z,65.78
2022-09-28T13:46:55.156Z,63.47
2022-09-28T13:47:55.130Z,65.52
2022-09-28T13:48:55.123Z,63.00
2022-09-28T13:49:55.195Z,61.52
2022-09-28T13:50:55.091Z,65.75
2022-09-28T13:51:55.156Z,62.51
2022-09-28T13:52:55.054Z,64.19
2022-09-28T13:53:55.100Z,65.50
2022-09-28T13:54:55.030Z,63.67
2022-09-28T13:55:54.988Z,64.83
2022-09-28T13:56:55.069Z,66.99
2022-09-28T13:57:55.066Z,63.84
2022-09-28T13:58:55.057Z,62.40
2022-09-28T13:59:55.135Z,64.71
2022-09-28T14:00:54.949Z,63.83
2022-09-28T14:01:55.025Z,62.31
2022-09-28T14:02:54.980Z,64.65
2022-09-28T14:03:54.903Z,63.17
2022-09-28T14:04:55.263Z,64.25
2022-09-28T14:05:54.851Z,64.12
2022-09-28T14:06:55.813Z,62.62
2022-09-28T14:07:57.256Z,63.90
2022-09-28T14:08:54.893Z,64.26
2022-09-28T14:09:54.963Z,61.57
2022-09-28T14:10:54.877Z,64.14
2022-09-28T14:11:54.923Z,63.91
2022-09-28T14:12:54.948Z,63.07
2022-09-28T14:13:54.811Z,64.75
2022-09-28T14:14:54.813Z,65.98
2022-09-28T14:15:54.772Z,64.75
2022-09-28T14:16:54.828Z,65.50
2022-09-28T14:17:54.760Z,63.89
2022-09-28T14:19:13.433Z,66.78
2022-09-28T14:19:54.893Z,64.32
2022-09-28T14:20:54.787Z,63.61
2022-09-28T14:21:54.750Z,64.64
2022-09-28T14:22:54.747Z,64.91
2022-09-28T14:23:59.027Z,64.71
2022-09-28T14:24:56.889Z,63.78
2022-09-28T14:25:54.645Z,64.81
2022-09-28T14:26:54.984Z,63.76
2022-09-28T14:27:54.616Z,65.37
2022-09-28T14:28:54.632Z,64.55
2022-09-28T14:29:54.804Z,62.39
2022-09-28T14:30:54.723Z,62.96
2022-09-28T14:31:54.583Z,63.89
2022-09-28T14:32:54.691Z,60.94
2022-09-28T14:33:54.614Z,63.98
2022-09-28T14:34:54.589Z,62.86
2022-09-28T14:35:54.646Z,63.24
2022-09-28T14:36:54.641Z,63.09
2022-09-28T14:37:54.517Z,62.33
2022-09-28T14:38:54.496Z,64.83
2022-09-28T14:39:54.645Z,64.64
2022-09-28T14:40:54.530Z,62.51
2022-09-28T14:41:54.531Z,62.40
2022-09-28T14:42:54.472Z,65.34
2022-09-28T14:43:54.450Z,63.40
2022-09-28T14:44:54.453Z,63.31
2022-09-28T14:45:54.629Z,65.69
2022-09-28T14:46:54.466Z,63.42
2022-09-28T14:47:54.512Z,62.47
2022-09-28T14:48:54.410Z,63.93
2022-09-28T14:49:54.565Z,62.48
2022-09-28T14:50:54.364Z,65.40
2022-09-28T14:51:54.449Z,63.52
2022-09-28T14:52:55.448Z,64.00
2022-09-28T14:53:54.463Z,62.76
2022-09-28T14:54:54.373Z,63.96
2022-09-28T14:55:54.367Z,66.11
2022-09-28T14:56:54.436Z,63.55
2022-09-28T14:57:54.270Z,63.39
2022-09-28T14:58:55.404Z,63.23
2022-09-28T14:59:54.306Z,64.03
2022-09-28T15:00:54.274Z,64.12
2022-09-28T15:01:54.335Z,62.50
2022-09-28T15:02:54.273Z,62.95
2022-09-28T15:03:54.357Z,63.54
2022-09-28T15:04:54.605Z,63.21
2022-09-28T15:05:54.316Z,63.74
2022-09-28T15:06:54.434Z,63.73
2022-09-28T15:07:54.253Z,65.43
2022-09-28T15:08:54.238Z,64.99
2022-09-28T15:09:54.547Z,62.78
2022-09-28T15:10:54.213Z,64.76
2022-09-28T15:11:54.141Z,64.60
2022-09-28T15:12:54.201Z,62.25
2022-09-28T15:13:54.237Z,61.57
2022-09-28T15:14:54.264Z,63.85
2022-09-28T15:15:54.192Z,63.01
2022-09-28T15:16:54.196Z,63.52
2022-09-28T15:17:54.162Z,64.43
2022-09-28T15:18:54.118Z,65.28
2022-09-28T15:19:54.103Z,64.65
2022-09-28T15:20:54.051Z,64.72
2022-09-28T15:21:55.136Z,64.44
2022-09-28T15:22:54.140Z,63.22
2022-09-28T15:23:54.090Z,64.98
2022-09-28T15:24:56.643Z,62.60
2022-09-28T15:25:54.060Z,65.27
2022-09-28T15:26:53.977Z,63.63
2022-09-28T15:27:53.990Z,63.28
2022-09-28T15:28:54.036Z,62.49
2022-09-28T15:29:53.988Z,63.32
2022-09-28T15:30:54.020Z,63.04
2022-09-28T15:31:54.738Z,63.95
2022-09-28T15:32:54.931Z,62.22
2022-09-28T15:33:53.910Z,63.58
2022-09-28T15:34:54.000Z,63.24
2022-09-28T15:35:55.035Z,63.69
2022-09-28T15:36:53.897Z,64.48
2022-09-28T15:37:53.915Z,65.96
2022-09-28T15:38:53.877Z,63.82
2022-09-28T15:39:54.050Z,64.69
2022-09-28T15:40:53.905Z,61.99
2022-09-28T15:41:53.912Z,61.39
2022-09-28T15:42:58.371Z,64.12
2022-09-28T15:43:55.945Z,63.31
2022-09-28T15:44:53.786Z,63.97
2022-09-28T15:45:54.212Z,63.10
2022-09-28T15:46:53.852Z,62.38
2022-09-28T15:47:53.754Z,62.74
2022-09-28T15:48:53.807Z,63.05
2022-09-28T15:49:53.732Z,61.97
2022-09-28T15:50:53.812Z,61.36
2022-09-28T15:51:53.735Z,60.64
2022-09-28T15:52:53.715Z,61.65
2022-09-28T15:53:53.820Z,61.41
2022-09-28T15:54:53.668Z,60.48
2022-09-28T15:55:53.715Z,60.60
2022-09-28T15:56:53.670Z,57.97
2022-09-28T15:57:53.624Z,60.61
2022-09-28T15:58:53.712Z,60.93
2022-09-28T15:59:53.778Z,60.20
2022-09-28T16:00:53.686Z,61.65
2022-09-28T16:01:53.753Z,61.55
2022-09-28T16:02:53.720Z,62.21
2022-09-28T16:03:53.605Z,60.51
2022-09-28T16:04:53.559Z,59.84
2022-09-28T16:05:53.593Z,57.22
2022-09-28T16:06:53.609Z,59.42
2022-09-28T16:07:56.099Z,59.68
2022-09-28T16:08:54.625Z,62.30
2022-09-28T16:09:53.639Z,61.23
2022-09-28T16:10:54.037Z,57.41
2022-09-28T16:11:53.536Z,58.38
2022-09-28T16:12:53.479Z,58.61
2022-09-28T16:13:53.544Z,59.13
2022-09-28T16:14:53.541Z,59.96
2022-09-28T16:15:53.583Z,58.51
2022-09-28T16:16:53.668Z,59.44
2022-09-28T16:17:53.487Z,61.76
2022-09-28T16:18:53.472Z,59.68
2022-09-28T16:19:53.509Z,58.86
2022-09-28T16:20:53.423Z,59.57
2022-09-28T16:21:53.474Z,61.15
2022-09-28T16:22:53.484Z,59.60
2022-09-28T16:23:53.387Z,59.97
2022-09-28T16:24:53.350Z,58.50
2022-09-28T16:25:53.381Z,58.91
2022-09-28T16:26:53.326Z,60.69
2022-09-28T16:27:53.305Z,60.89
2022-09-28T16:28:53.318Z,59.24
2022-09-28T16:29:53.297Z,59.68
2022-09-28T16:30:53.312Z,62.95
2022-09-28T16:31:53.282Z,59.62
2022-09-28T16:32:53.226Z,59.76
2022-09-28T16:33:53.215Z,59.08
2022-09-28T16:34:53.209Z,59.08
2022-09-28T16:35:53.271Z,58.38
2022-09-28T16:36:53.189Z,61.80
2022-09-28T16:37:53.282Z,62.03
2022-09-28T16:38:53.168Z,59.32
2022-09-28T16:39:53.225Z,59.32
2022-09-28T16:40:53.215Z,59.75
2022-09-28T16:41:53.262Z,58.59
2022-09-28T16:42:53.184Z,57.74
2022-09-28T16:43:53.241Z,58.51
2022-09-28T16:44:53.177Z,59.10
2022-09-28T16:45:53.189Z,58.37
2022-09-28T16:46:53.135Z,58.93
2022-09-28T16:47:53.195Z,60.58
2022-09-28T16:48:53.058Z,59.70
2022-09-28T16:49:53.063Z,59.68
2022-09-28T16:50:53.378Z,60.40
2022-09-28T16:51:53.107Z,60.65
2022-09-28T16:52:56.786Z,60.67
2022-09-28T16:53:54.048Z,57.59
2022-09-28T16:54:53.107Z,58.26
2022-09-28T16:55:53.073Z,57.58
2022-09-28T16:56:53.091Z,57.68
2022-09-28T16:57:52.987Z,59.03
2022-09-28T16:58:52.955Z,58.77
2022-09-28T16:59:52.977Z,58.18
2022-09-28T17:00:52.955Z,57.02
2022-09-28T17:01:53.072Z,60.19
2022-09-28T17:02:53.029Z,59.22
2022-09-28T17:03:52.922Z,60.76
2022-09-28T17:04:52.920Z,61.01
2022-09-28T17:05:52.925Z,60.61
2022-09-28T17:06:52.994Z,60.18
2022-09-28T17:07:52.839Z,61.17
2022-09-28T17:08:52.853Z,57.92
2022-09-28T17:09:52.864Z,57.82
2022-09-28T17:11:22.594Z,58.93
2022-09-28T17:11:54.821Z,60.76
2022-09-28T17:12:52.795Z,62.37
2022-09-28T17:13:52.906Z,63.19
2022-09-28T17:14:52.800Z,57.71
2022-09-28T17:15:52.856Z,59.28
2022-09-28T17:17:08.175Z,59.90
2022-09-28T17:17:54.803Z,58.68
2022-09-28T17:18:52.729Z,59.80
2022-09-28T17:19:52.736Z,57.85
2022-09-28T17:20:52.740Z,56.67
2022-09-28T17:21:52.682Z,58.27
2022-09-28T17:22:52.742Z,58.90
2022-09-28T17:23:52.718Z,60.95
2022-09-28T17:24:52.689Z,58.49
2022-09-28T17:25:52.723Z,60.66
2022-09-28T17:26:52.710Z,60.82
2022-09-28T17:27:52.647Z,60.60
2022-09-28T17:28:52.597Z,59.28
2022-09-28T17:29:52.593Z,59.84
2022-09-28T17:30:52.783Z,59.91
2022-09-28T17:31:52.599Z,63.60
2022-09-28T17:32:52.568Z,60.60
2022-09-28T17:33:52.578Z,56.97
2022-09-28T17:35:06.441Z,59.75
2022-09-28T17:35:54.668Z,58.74
2022-09-28T17:36:52.539Z,61.72
2022-09-28T17:37:52.497Z,59.20
2022-09-28T17:38:52.518Z,59.40
2022-09-28T17:39:52.494Z,60.26
2022-09-28T17:40:52.645Z,59.83
2022-09-28T17:41:52.489Z,58.30
2022-09-28T17:42:52.478Z,60.90
2022-09-28T17:43:52.440Z,62.54
2022-09-28T17:44:52.549Z,59.46
2022-09-28T17:45:52.611Z,58.87
2022-09-28T17:46:52.435Z,60.19
2022-09-28T17:47:52.432Z,59.98
2022-09-28T17:48:52.389Z,56.57
2022-09-28T17:49:52.419Z,57.70
2022-09-28T17:50:52.429Z,57.86
2022-09-28T17:51:52.395Z,59.18
2022-09-28T17:52:52.364Z,57.96
2022-09-28T17:53:52.383Z,59.34
2022-09-28T17:54:52.388Z,60.11
2022-09-28T17:55:52.354Z,58.22
2022-09-28T17:56:52.317Z,60.27
2022-09-28T17:57:52.296Z,60.54
2022-09-28T17:58:52.308Z,62.90
2022-09-28T17:59:52.304Z,59.85
2022-09-28T18:00:52.345Z,61.87
2022-09-28T18:01:52.427Z,60.93
2022-09-28T18:02:52.339Z,58.42
2022-09-28T18:03:52.265Z,60.44
2022-09-28T18:04:52.710Z,61.30
2022-09-28T18:05:52.285Z,56.51
2022-09-28T18:06:52.227Z,59.83
2022-09-28T18:07:52.250Z,60.31
2022-09-28T18:08:52.185Z,59.62
2022-09-28T18:09:52.202Z,61.68
2022-09-28T18:10:52.205Z,62.33
2022-09-28T18:11:52.184Z,60.39
2022-09-28T18:12:53.157Z,57.03
2022-09-28T18:13:52.154Z,60.06
2022-09-28T18:14:52.126Z,59.00
2022-09-28T18:15:52.223Z,59.39
2022-09-28T18:16:52.138Z,59.76
2022-09-28T18:17:52.095Z,59.61
2022-09-28T18:18:51.995Z,59.27
2022-09-28T18:19:52.103Z,60.00
2022-09-28T18:20:52.121Z,60.74
2022-09-28T18:21:52.078Z,60.53
2022-09-28T18:22:52.047Z,58.80
2022-09-28T18:23:52.027Z,60.83
2022-09-28T18:24:52.057Z,56.87
2022-09-28T18:25:52.048Z,58.98
2022-09-28T18:26:52.026Z,60.49
2022-09-28T18:27:52.116Z,57.84
2022-09-28T18:28:51.971Z,58.51
2022-09-28T18:29:52.039Z,57.33
2022-09-28T18:30:52.070Z,57.93
2022-09-28T18:31:52.029Z,58.76
2022-09-28T18:32:51.946Z,58.26
2022-09-28T18:33:51.975Z,58.45
2022-09-28T18:34:51.962Z,60.36
2022-09-28T18:35:52.317Z,58.86
2022-09-28T18:36:51.884Z,56.02
2022-09-28T18:37:51.980Z,58.27
2022-09-28T18:38:51.867Z,56.06
2022-09-28T18:39:51.975Z,55.56
2022-09-28T18:40:51.948Z,56.70
2022-09-28T18:41:51.877Z,55.44
2022-09-28T18:42:51.858Z,57.07
2022-09-28T18:43:51.844Z,58.25
2022-09-28T18:44:51.826Z,58.99
2022-09-28T18:45:51.860Z,58.15
2022-09-28T18:46:51.859Z,56.82
2022-09-28T18:47:51.765Z,58.69
2022-09-28T18:48:51.898Z,59.88
2022-09-28T18:49:51.798Z,59.40
2022-09-28T18:50:51.815Z,57.98
2022-09-28T18:51:51.750Z,57.45
2022-09-28T18:52:51.841Z,56.87
2022-09-28T18:53:51.770Z,57.72
2022-09-28T18:54:51.722Z,58.14
2022-09-28T18:55:51.755Z,58.13
2022-09-28T18:56:51.692Z,61.55
2022-09-28T18:57:51.694Z,60.86